Time;durP1;ratioP1;P1;durP2;ratioP2;P2;SDS_P1;SDS_P2;PMS_P1;PMS_P2;Temp;Humidity;BMP_temperature;BMP_pressure;BME280_temperature;BME280_humidity;BME280_pressure;Samples;Min_cycle;Max_cycle;Signal;HPM_P1;HPM_P2
2020/12/31 00:02:40;;;;;;;5.53;4.53;;;;;;;3.62;93.17;100311.78;6007089;29;20215;-80
2020/12/31 00:05:45;;;;;;;5.17;4.70;;;;;;;3.74;92.98;100302.22;6009093;29;20204;-77
2020/12/31 00:08:49;;;;;;;5.00;4.70;;;;;;;3.76;92.50;100308.25;6014138;29;20230;-77
2020/12/31 00:11:52;;;;;;;5.43;4.90;;;;;;;3.76;93.30;100316.34;6009989;29;20200;-77
2020/12/31 00:14:55;;;;;;;4.90;4.63;;;;;;;3.85;93.20;100322.50;6014144;29;20255;-78
2020/12/31 00:17:59;;;;;;;6.60;5.10;;;;;;;3.87;92.83;100314.22;6009326;29;20206;-77
2020/12/31 00:21:03;;;;;;;5.00;4.70;;;;;;;3.87;92.25;100303.41;6006272;29;20208;-78
2020/12/31 00:24:09;;;;;;;5.83;5.23;;;;;;;3.85;91.95;100305.47;6006176;29;20238;-79
2020/12/31 00:27:14;;;;;;;5.30;4.83;;;;;;;4.08;91.36;100319.69;6008230;29;20884;-77
2020/12/31 00:30:18;;;;;;;5.93;5.33;;;;;;;3.89;92.09;100315.69;6007050;29;20675;-78
2020/12/31 00:33:28;;;;;;;5.40;5.00;;;;;;;3.87;92.62;100319.59;6021536;29;20193;-81
2020/12/31 00:36:33;;;;;;;6.03;5.43;;;;;;;3.97;92.75;100314.75;6018084;29;20197;-79
2020/12/31 00:39:36;;;;;;;6.03;5.53;;;;;;;4.03;91.56;100322.13;6002314;29;20585;-77
2020/12/31 00:42:40;;;;;;;5.80;5.30;;;;;;;4.12;91.18;100318.28;6005848;29;20222;-76
2020/12/31 00:45:43;;;;;;;6.83;5.17;;;;;;;4.08;91.27;100322.41;5985756;29;20213;-76
2020/12/31 00:48:46;;;;;;;5.47;4.57;;;;;;;4.03;91.47;100330.22;6012699;29;20219;-76
2020/12/31 00:51:51;;;;;;;5.43;5.00;;;;;;;4.07;91.34;100326.09;5984505;29;20235;-78
2020/12/31 00:54:54;;;;;;;4.97;4.67;;;;;;;4.00;91.98;100325.19;6009680;29;20217;-76
2020/12/31 00:57:57;;;;;;;5.23;4.83;;;;;;;4.03;91.87;100336.44;6002709;29;20234;-78
2020/12/31 01:01:02;;;;;;;5.77;4.73;;;;;;;4.01;91.76;100332.25;5997591;29;20212;-78
2020/12/31 01:04:06;;;;;;;7.53;4.43;;;;;;;4.09;90.84;100338.41;6010479;29;20271;-78
2020/12/31 01:07:16;;;;;;;4.90;4.50;;;;;;;4.01;91.02;100334.94;6009156;29;20628;-78
2020/12/31 01:10:21;;;;;;;4.77;4.47;;;;;;;3.94;90.94;100310.56;6003557;29;20249;-79
2020/12/31 01:13:28;;;;;;;8.63;4.80;;;;;;;4.00;91.84;100338.69;6000280;29;20205;-76
2020/12/31 01:16:32;;;;;;;5.70;4.67;;;;;;;3.74;91.76;100299.53;6006662;29;20202;-79
2020/12/31 01:19:35;;;;;;;5.20;4.80;;;;;;;4.04;92.38;100342.66;6003524;29;20215;-77
2020/12/31 01:22:39;;;;;;;5.27;4.77;;;;;;;4.08;92.14;100334.03;6006087;29;20311;-76
2020/12/31 01:25:43;;;;;;;5.17;4.63;;;;;;;3.96;93.06;100329.25;6005883;29;20333;-76
2020/12/31 01:28:47;;;;;;;4.60;4.33;;;;;;;3.91;92.65;100323.59;6003113;29;20309;-78
2020/12/31 01:31:50;;;;;;;5.53;5.17;;;;;;;4.06;92.42;100340.63;5997050;29;20298;-78
2020/12/31 01:34:53;;;;;;;4.90;4.60;;;;;;;3.97;93.00;100336.34;5999151;29;20209;-77
2020/12/31 01:37:57;;;;;;;5.40;4.77;;;;;;;3.98;93.33;100338.03;6007298;29;20197;-78
2020/12/31 01:41:01;;;;;;;5.33;4.77;;;;;;;4.04;92.52;100329.19;6020577;29;20191;-78
2020/12/31 01:44:10;;;;;;;5.13;4.73;;;;;;;4.08;92.01;100333.19;6010225;29;20214;-76
2020/12/31 01:47:14;;;;;;;4.17;3.97;;;;;;;4.08;92.05;100334.03;6009949;29;20213;-77
2020/12/31 01:50:18;;;;;;;4.20;4.00;;;;;;;4.07;91.24;100347.69;6005188;29;20668;-76
2020/12/31 01:53:23;;;;;;;4.10;3.90;;;;;;;4.06;90.01;100351.41;6003399;29;20268;-78
2020/12/31 01:56:29;;;;;;;4.43;4.20;;;;;;;4.21;90.18;100344.16;6008186;29;20201;-77
2020/12/31 01:59:32;;;;;;;4.77;4.33;;;;;;;4.23;90.27;100358.31;6007899;29;20219;-77
2020/12/31 02:02:36;;;;;;;4.63;4.20;;;;;;;4.22;89.91;100353.94;6002186;29;20299;-77
2020/12/31 02:05:39;;;;;;;4.70;4.37;;;;;;;4.12;90.60;100347.97;6009701;29;20430;-77
2020/12/31 02:08:45;;;;;;;4.20;3.80;;;;;;;4.18;90.36;100358.03;6010617;29;20244;-76
2020/12/31 02:11:48;;;;;;;4.30;4.00;;;;;;;4.22;90.30;100351.22;6009549;29;20205;-78
2020/12/31 02:14:53;;;;;;;4.03;3.73;;;;;;;4.23;89.57;100347.50;6018112;29;20291;-76
2020/12/31 02:17:56;;;;;;;3.77;3.50;;;;;;;4.14;89.56;100340.53;6012316;29;20209;-78
2020/12/31 02:20:59;;;;;;;3.40;3.30;;;;;;;4.26;89.54;100355.25;6012450;29;20318;-77
2020/12/31 02:24:05;;;;;;;3.70;3.50;;;;;;;4.25;90.32;100350.84;6011782;29;20357;-77
2020/12/31 02:27:10;;;;;;;3.63;3.53;;;;;;;4.27;89.18;100344.25;6009706;29;20207;-78
2020/12/31 02:30:17;;;;;;;3.30;3.20;;;;;;;4.18;89.66;100355.34;6016523;29;20249;-77
2020/12/31 02:33:26;;;;;;;4.70;3.40;;;;;;;4.08;90.59;100360.19;6010127;29;20201;-78
2020/12/31 02:36:34;;;;;;;3.67;3.17;;;;;;;4.05;91.16;100349.75;5999234;29;20200;-77
2020/12/31 02:39:38;;;;;;;3.50;3.37;;;;;;;4.25;89.85;100350.84;6006740;29;20577;-75
2020/12/31 02:42:42;;;;;;;3.03;2.93;;;;;;;3.99;91.68;100345.09;6021294;29;20207;-77
2020/12/31 02:45:46;;;;;;;2.90;2.80;;;;;;;4.06;90.90;100356.81;6025258;29;20246;-83
2020/12/31 02:48:50;;;;;;;2.83;2.73;;;;;;;3.95;90.31;100311.41;6018108;29;20249;-79
2020/12/31 02:51:53;;;;;;;3.20;3.10;;;;;;;4.08;90.78;100344.84;6000849;29;20224;-76
2020/12/31 02:54:58;;;;;;;3.30;3.20;;;;;;;4.10;91.31;100341.94;6008092;29;20211;-76
2020/12/31 02:58:01;;;;;;;2.70;2.60;;;;;;;4.11;90.97;100319.31;6007402;29;20263;-78
2020/12/31 03:01:07;;;;;;;3.20;3.00;;;;;;;4.16;90.97;100333.09;6007878;29;20253;-77
2020/12/31 03:04:10;;;;;;;3.20;2.93;;;;;;;4.20;90.94;100332.53;6009814;29;20202;-78
2020/12/31 03:07:18;;;;;;;3.27;3.00;;;;;;;4.14;92.00;100337.81;6002974;29;20211;-77
2020/12/31 03:10:23;;;;;;;3.00;2.80;;;;;;;4.12;92.46;100335.31;6004164;29;20686;-76
2020/12/31 03:13:30;;;;;;;2.83;2.73;;;;;;;4.20;93.13;100331.69;6003571;29;20303;-77
2020/12/31 03:16:34;;;;;;;3.37;3.00;;;;;;;4.14;93.61;100321.63;6009317;29;20198;-77
2020/12/31 03:19:38;;;;;;;2.73;2.57;;;;;;;4.23;92.52;100331.31;6007824;29;20214;-78
2020/12/31 03:22:42;;;;;;;3.20;3.00;;;;;;;4.39;92.45;100333.81;6007471;29;20318;-78
2020/12/31 03:25:47;;;;;;;3.23;2.97;;;;;;;4.09;92.39;100291.66;6010160;29;20206;-78
2020/12/31 03:28:50;;;;;;;3.07;2.97;;;;;;;4.34;91.93;100330.81;6008680;29;20209;-77
2020/12/31 03:31:54;;;;;;;2.83;2.73;;;;;;;4.29;92.65;100330.53;6006886;29;20686;-76
2020/12/31 03:34:58;;;;;;;3.10;3.00;;;;;;;4.33;92.75;100342.66;6008739;29;20435;-78
2020/12/31 03:38:02;;;;;;;2.70;2.60;;;;;;;4.24;93.90;100349.16;6009188;29;20218;-75
2020/12/31 03:41:08;;;;;;;3.10;2.80;;;;;;;4.19;94.41;100357.84;6007857;29;20662;-77
2020/12/31 03:44:13;;;;;;;2.87;2.77;;;;;;;4.14;95.56;100354.03;6007839;29;20366;-78
2020/12/31 03:47:16;;;;;;;3.00;2.90;;;;;;;4.09;96.49;100367.25;6008080;29;20202;-78
2020/12/31 03:50:19;;;;;;;2.70;2.70;;;;;;;4.14;95.91;100337.81;6008331;29;20323;-77
2020/12/31 03:53:23;;;;;;;3.10;2.97;;;;;;;4.39;94.97;100358.94;6026565;29;20201;-76
2020/12/31 03:56:28;;;;;;;4.40;3.40;;;;;;;4.01;96.20;100343.03;6007599;29;20247;-77
2020/12/31 03:59:31;;;;;;;2.80;2.70;;;;;;;4.05;96.21;100361.41;6008340;29;21150;-77
2020/12/31 04:02:34;;;;;;;3.33;2.87;;;;;;;4.08;95.58;100344.00;6003198;29;20604;-78
2020/12/31 04:05:37;;;;;;;2.27;2.20;;;;;;;4.25;94.04;100348.16;6012932;29;20208;-76
2020/12/31 04:08:42;;;;;;;3.73;2.50;;;;;;;4.22;94.22;100345.81;6007965;29;20201;-78
2020/12/31 04:11:46;;;;;;;2.33;2.33;;;;;;;4.17;94.03;100348.25;6003643;29;20649;-78
2020/12/31 04:14:49;;;;;;;1.83;1.83;;;;;;;4.22;93.29;100345.81;6007739;29;20208;-77
2020/12/31 04:17:52;;;;;;;1.87;1.87;;;;;;;4.18;93.01;100347.25;6004923;29;20199;-77
2020/12/31 04:20:57;;;;;;;2.40;1.80;;;;;;;4.09;92.25;100319.50;6007096;29;20605;-77
2020/12/31 04:24:00;;;;;;;2.00;1.80;;;;;;;4.42;91.30;100357.72;6006974;29;20585;-77
2020/12/31 04:27:05;;;;;;;3.17;1.77;;;;;;;4.43;91.68;100354.00;6005714;29;20291;-78
2020/12/31 04:30:10;;;;;;;1.67;1.67;;;;;;;4.43;91.02;100348.59;6006233;29;20223;-77
2020/12/31 04:33:23;;;;;;;2.10;2.10;;;;;;;4.42;91.73;100352.31;6007618;29;20205;-76
2020/12/31 04:36:27;;;;;;;2.10;2.10;;;;;;;4.42;92.20;100349.63;6005908;29;20216;-77
2020/12/31 04:39:30;;;;;;;1.90;1.80;;;;;;;4.34;92.64;100355.13;6007401;29;20201;-77
2020/12/31 04:42:36;;;;;;;2.17;2.00;;;;;;;4.40;92.97;100348.97;6006011;29;20265;-77
2020/12/31 04:45:42;;;;;;;2.30;2.20;;;;;;;4.52;92.64;100352.84;6006890;29;20206;-77
2020/12/31 04:48:55;;;;;;;1.90;1.90;;;;;;;4.40;92.70;100340.88;6005945;29;20213;-77
2020/12/31 04:51:59;;;;;;;2.03;1.93;;;;;;;4.36;93.30;100363.88;6006751;29;20347;-79
2020/12/31 04:55:03;;;;;;;2.00;2.00;;;;;;;4.37;92.44;100365.53;6003890;29;20213;-78
2020/12/31 04:58:16;;;;;;;2.17;2.10;;;;;;;4.31;93.03;100360.91;6026365;29;20237;-82
2020/12/31 05:01:19;;;;;;;2.47;2.30;;;;;;;4.32;92.90;100358.03;6004688;29;20288;-78
2020/12/31 05:04:23;;;;;;;2.30;2.17;;;;;;;4.43;92.75;100362.94;6006813;29;20207;-78
2020/12/31 05:07:26;;;;;;;2.10;2.00;;;;;;;4.47;92.01;100366.09;6006226;29;20259;-78
2020/12/31 05:10:30;;;;;;;2.43;2.13;;;;;;;4.44;92.39;100366.50;6004180;29;20802;-78
2020/12/31 05:13:43;;;;;;;2.03;2.03;;;;;;;4.39;93.27;100368.91;6005885;29;20213;-77
2020/12/31 05:16:46;;;;;;;2.70;2.60;;;;;;;4.44;93.22;100378.09;6005541;29;20208;-80
2020/12/31 05:19:50;;;;;;;2.43;2.23;;;;;;;4.37;92.62;100387.16;6006525;29;20208;-78
2020/12/31 05:23:10;;;;;;;2.50;2.30;;;;;;;4.33;92.96;100377.75;6005902;29;20233;-77
2020/12/31 05:26:29;;;;;;;2.47;2.30;;;;;;;4.32;92.47;100376.06;6006353;29;20202;-76
2020/12/31 05:29:53;;;;;;;2.27;2.17;;;;;;;4.34;93.15;100371.31;6002325;29;20669;-78
2020/12/31 05:33:04;;;;;;;2.43;2.23;;;;;;;4.35;92.69;100383.81;6005415;29;20205;-78
2020/12/31 05:36:16;;;;;;;2.40;2.40;;;;;;;4.41;93.22;100389.31;6004989;29;20208;-77
2020/12/31 05:39:19;;;;;;;2.60;2.50;;;;;;;4.49;93.21;100391.06;6010061;29;20290;-77
2020/12/31 05:42:22;;;;;;;3.13;2.27;;;;;;;4.40;93.00;100375.97;6005457;29;20332;-76
2020/12/31 05:45:28;;;;;;;2.10;2.00;;;;;;;4.43;93.58;100397.22;6007162;29;20200;-77
2020/12/31 05:48:31;;;;;;;2.20;2.10;;;;;;;4.52;93.46;100396.06;6008678;29;20209;-78
2020/12/31 05:51:37;;;;;;;2.33;2.20;;;;;;;4.53;93.30;100403.16;6004018;29;20271;-77
2020/12/31 05:54:46;;;;;;;2.20;2.20;;;;;;;4.52;92.62;100396.06;6002800;29;20610;-78
2020/12/31 05:57:50;;;;;;;2.40;2.33;;;;;;;4.54;92.56;100410.25;6009683;29;20373;-77
2020/12/31 06:01:01;;;;;;;2.23;2.23;;;;;;;4.47;93.09;100398.50;6009671;29;20205;-78
2020/12/31 06:04:18;;;;;;;2.40;2.30;;;;;;;4.47;93.67;100409.31;6027215;29;20205;-81
2020/12/31 06:07:31;;;;;;;3.23;2.17;;;;;;;4.41;94.31;100416.31;6009202;29;20202;-79
2020/12/31 06:10:50;;;;;;;2.70;2.60;;;;;;;4.38;94.42;100413.16;6009270;29;20226;-78
2020/12/31 06:13:57;;;;;;;4.23;2.40;;;;;;;4.42;94.45;100412.56;6006714;29;20694;-78
2020/12/31 06:17:02;;;;;;;2.70;2.60;;;;;;;4.35;94.92;100427.03;6009665;29;20208;-78
2020/12/31 06:20:12;;;;;;;3.50;3.13;;;;;;;4.38;94.74;100426.66;6009078;29;20208;-78
2020/12/31 06:23:35;;;;;;;3.57;2.83;;;;;;;4.36;95.19;100412.50;6004588;29;20205;-78
2020/12/31 06:26:41;;;;;;;2.80;2.70;;;;;;;4.48;94.78;100421.81;6009430;29;20211;-80
2020/12/31 06:29:47;;;;;;;2.50;2.50;;;;;;;4.47;95.01;100417.41;6009144;29;20737;-79
2020/12/31 06:32:52;;;;;;;2.87;2.70;;;;;;;4.61;94.39;100427.38;6009005;29;20257;-77
2020/12/31 06:35:58;;;;;;;3.00;2.80;;;;;;;4.55;94.22;100422.72;6007728;29;20549;-78
2020/12/31 06:39:03;;;;;;;2.77;2.70;;;;;;;4.53;94.12;100422.06;6008336;29;20209;-77
2020/12/31 06:42:07;;;;;;;4.03;3.80;;;;;;;4.37;94.00;100381.75;6008739;29;20237;-78
2020/12/31 06:45:33;;;;;;;3.43;3.33;;;;;;;4.63;93.39;100422.63;6005812;29;20269;-76
2020/12/31 06:48:39;;;;;;;4.33;4.03;;;;;;;4.62;92.95;100429.06;6008721;29;20687;-76
2020/12/31 06:51:43;;;;;;;4.70;3.40;;;;;;;4.71;93.34;100441.44;6009034;29;20239;-78
2020/12/31 06:54:47;;;;;;;3.67;3.40;;;;;;;4.63;93.21;100430.72;6009888;29;20202;-78
2020/12/31 06:57:50;;;;;;;3.07;2.90;;;;;;;4.39;94.25;100401.34;6007828;29;20787;-78
2020/12/31 07:00:54;;;;;;;3.53;3.30;;;;;;;4.48;93.98;100432.59;6009109;29;20201;-79
2020/12/31 07:03:59;;;;;;;4.10;3.80;;;;;;;4.57;94.05;100442.28;6008792;29;20208;-78
2020/12/31 07:07:26;;;;;;;5.63;4.03;;;;;;;4.57;94.32;100453.06;5997032;29;20645;-79
2020/12/31 07:10:43;;;;;;;4.17;3.80;;;;;;;4.68;93.65;100447.22;6014367;29;20625;-77
2020/12/31 07:13:47;;;;;;;3.93;3.40;;;;;;;4.72;93.82;100456.63;5999771;29;20509;-77
2020/12/31 07:17:03;;;;;;;4.43;4.23;;;;;;;4.60;94.65;100446.47;6007470;29;20294;-77
2020/12/31 07:20:12;;;;;;;4.57;4.17;;;;;;;4.65;94.14;100444.88;6008528;29;20281;-78
2020/12/31 07:23:19;;;;;;;4.33;4.03;;;;;;;4.72;93.65;100456.63;6008041;29;20541;-78
2020/12/31 07:26:25;;;;;;;3.50;3.10;;;;;;;4.59;94.45;100444.81;6005882;29;20197;-78
2020/12/31 07:29:30;;;;;;;6.43;3.33;;;;;;;4.65;93.74;100450.28;5996959;29;20576;-77
2020/12/31 07:32:53;;;;;;;3.70;3.60;;;;;;;4.73;93.24;100447.47;6006081;29;20229;-78
2020/12/31 07:35:59;;;;;;;5.07;3.87;;;;;;;4.73;93.14;100452.03;6005126;29;20328;-77
2020/12/31 07:39:02;;;;;;;3.97;3.77;;;;;;;4.70;93.52;100453.25;6009123;29;20209;-77
2020/12/31 07:42:10;;;;;;;3.67;3.57;;;;;;;4.77;93.52;100454.19;5990279;29;21533;-78
2020/12/31 07:45:13;;;;;;;3.57;3.47;;;;;;;4.74;93.27;100465.38;5999577;29;20244;-78
2020/12/31 07:48:27;;;;;;;3.40;3.20;;;;;;;4.70;93.61;100455.97;5990182;29;20233;-77
2020/12/31 07:51:31;;;;;;;3.63;3.27;;;;;;;4.72;93.13;100445.81;6005990;29;20374;-77
2020/12/31 07:54:34;;;;;;;5.70;3.20;;;;;;;4.73;93.18;100458.28;6007716;29;20194;-78
2020/12/31 07:57:38;;;;;;;3.10;3.03;;;;;;;4.71;92.83;100465.75;6008641;29;20256;-78
2020/12/31 08:00:41;;;;;;;3.53;3.40;;;;;;;4.74;93.51;100476.19;6012206;29;20208;-76
2020/12/31 08:03:49;;;;;;;4.77;3.60;;;;;;;4.67;93.41;100480.69;6024068;29;20204;-76
2020/12/31 08:07:02;;;;;;;3.90;3.70;;;;;;;4.54;94.45;100477.78;6000094;29;20216;-77
2020/12/31 08:10:08;;;;;;;3.27;3.07;;;;;;;4.54;94.18;100475.09;5996281;29;20562;-79
2020/12/31 08:13:19;;;;;;;2.73;2.63;;;;;;;4.55;93.63;100465.94;6005830;29;20229;-78
2020/12/31 08:16:22;;;;;;;2.60;2.50;;;;;;;4.61;94.08;100470.63;6016617;29;20204;-78
2020/12/31 08:19:25;;;;;;;3.27;3.00;;;;;;;4.64;93.61;100475.66;6007646;29;20281;-77
2020/12/31 08:22:36;;;;;;;3.00;2.90;;;;;;;4.68;93.44;100479.63;6007026;29;20221;-76
2020/12/31 08:25:43;;;;;;;2.60;2.50;;;;;;;4.77;93.05;100486.63;6006536;29;20641;-77
2020/12/31 08:28:48;;;;;;;2.43;2.40;;;;;;;4.78;92.16;100488.28;6006494;29;20194;-77
2020/12/31 08:31:54;;;;;;;2.40;2.30;;;;;;;4.71;91.75;100481.97;5999462;29;20317;-77
2020/12/31 08:34:59;;;;;;;2.93;2.57;;;;;;;4.73;92.62;100488.00;6006717;29;20525;-80
2020/12/31 08:38:09;;;;;;;2.60;2.50;;;;;;;4.72;91.79;100489.06;6007213;29;20210;-76
2020/12/31 08:41:14;;;;;;;2.83;2.70;;;;;;;4.82;91.72;100489.59;6005070;29;20208;-78
2020/12/31 08:44:20;;;;;;;3.33;3.10;;;;;;;4.87;91.58;100502.56;6006884;29;20205;-78
2020/12/31 08:47:25;;;;;;;3.37;2.70;;;;;;;4.82;91.52;100495.00;6004258;29;20204;-77
2020/12/31 08:50:29;;;;;;;3.10;2.90;;;;;;;4.86;91.49;100512.53;6006088;29;20374;-76
2020/12/31 08:53:47;;;;;;;3.33;3.23;;;;;;;4.79;91.44;100495.38;5999076;29;20227;-77
2020/12/31 08:56:50;;;;;;;3.30;3.10;;;;;;;4.89;92.17;100509.44;5997481;29;20268;-78
2020/12/31 08:59:53;;;;;;;3.23;3.03;;;;;;;4.87;91.18;100507.97;6003294;29;20637;-77
2020/12/31 09:02:58;;;;;;;3.07;2.97;;;;;;;4.82;91.70;100505.81;6004056;29;20271;-76
2020/12/31 09:06:02;;;;;;;3.23;3.10;;;;;;;4.89;91.82;100517.56;6000849;29;20209;-78
2020/12/31 09:09:15;;;;;;;2.83;2.63;;;;;;;4.79;92.03;100510.75;6005779;29;20214;-77
2020/12/31 09:12:18;;;;;;;3.50;3.30;;;;;;;4.88;92.08;100509.63;6005598;29;20614;-76
2020/12/31 09:15:21;;;;;;;3.23;2.90;;;;;;;4.90;91.96;100508.44;6006462;29;20259;-78
2020/12/31 09:18:30;;;;;;;3.23;2.93;;;;;;;4.97;91.89;100519.31;6009510;29;20330;-79
2020/12/31 09:21:34;;;;;;;3.80;3.10;;;;;;;4.93;91.73;100521.53;6027016;29;20184;-82
2020/12/31 09:24:41;;;;;;;3.07;2.87;;;;;;;4.95;91.52;100527.63;6009622;29;20669;-78
2020/12/31 09:27:45;;;;;;;3.73;3.10;;;;;;;4.96;91.85;100537.41;6007079;29;20210;-79
2020/12/31 09:30:49;;;;;;;3.17;2.97;;;;;;;4.82;91.98;100537.41;6008524;29;20198;-78
2020/12/31 09:33:52;;;;;;;3.40;3.20;;;;;;;4.98;91.93;100524.53;6005545;29;20317;-77
2020/12/31 09:36:59;;;;;;;3.97;3.33;;;;;;;4.91;91.54;100515.50;6005081;29;20210;-78
2020/12/31 09:40:04;;;;;;;3.37;3.17;;;;;;;4.86;91.84;100522.50;6005786;29;20713;-77
2020/12/31 09:43:12;;;;;;;3.60;3.40;;;;;;;4.75;92.17;100504.06;6002396;29;20206;-80
2020/12/31 09:46:18;;;;;;;3.60;3.50;;;;;;;4.91;92.29;100531.72;6001217;29;20197;-78
2020/12/31 09:49:21;;;;;;;3.37;3.27;;;;;;;4.95;92.41;100527.63;6009210;29;20208;-79
2020/12/31 09:52:25;;;;;;;3.10;3.00;;;;;;;5.00;92.37;100530.59;5996503;29;20226;-77
2020/12/31 09:55:29;;;;;;;3.63;3.33;;;;;;;4.95;92.93;100519.53;6005776;29;20206;-78
2020/12/31 09:58:32;;;;;;;3.47;3.20;;;;;;;4.79;92.17;100483.72;6005566;29;20728;-78
2020/12/31 10:01:36;;;;;;;3.70;3.47;;;;;;;4.95;92.41;100514.13;6003346;29;20202;-80
2020/12/31 10:04:40;;;;;;;3.90;3.63;;;;;;;5.02;92.96;100528.53;6018992;29;20686;-77
2020/12/31 10:07:43;;;;;;;5.03;3.87;;;;;;;4.96;92.55;100518.47;6003924;29;20257;-78
2020/12/31 10:10:48;;;;;;;6.03;5.40;;;;;;;5.03;92.80;100527.50;6012027;29;20203;-78
2020/12/31 10:13:51;;;;;;;7.60;6.00;;;;;;;5.18;92.26;100532.06;6010352;29;20585;-78
2020/12/31 10:16:54;;;;;;;5.83;5.30;;;;;;;5.18;92.54;100532.91;6007668;29;20560;-76
2020/12/31 10:19:58;;;;;;;4.60;4.30;;;;;;;5.21;92.28;100537.09;6010963;29;20284;-76
2020/12/31 10:23:01;;;;;;;4.80;4.40;;;;;;;5.16;92.63;100534.13;6019274;29;20197;-77
2020/12/31 10:26:06;;;;;;;3.87;3.57;;;;;;;5.10;92.66;100533.00;6020348;29;20190;-83
2020/12/31 10:29:12;;;;;;;3.40;3.30;;;;;;;5.03;92.82;100538.31;6031869;29;20202;-79
2020/12/31 10:32:16;;;;;;;4.50;4.10;;;;;;;4.94;93.39;100525.94;6011864;29;20254;-78
2020/12/31 10:35:22;;;;;;;5.50;4.10;;;;;;;4.93;93.34;100535.06;6016007;29;20208;-77
2020/12/31 10:38:29;;;;;;;3.80;3.60;;;;;;;4.91;94.10;100541.69;6014546;29;20312;-78
2020/12/31 10:41:33;;;;;;;3.60;3.40;;;;;;;4.95;93.53;100527.63;6012978;29;20688;-78
2020/12/31 10:44:37;;;;;;;3.47;3.30;;;;;;;4.74;92.11;100464.53;6020898;29;20209;-77
2020/12/31 10:47:41;;;;;;;3.47;3.17;;;;;;;5.10;91.83;100529.47;6012272;29;20630;-76
2020/12/31 10:50:44;;;;;;;3.43;3.23;;;;;;;5.03;92.48;100532.09;6009363;29;20228;-78
2020/12/31 10:53:48;;;;;;;3.20;3.10;;;;;;;5.14;92.28;100533.44;6001896;29;20898;-79
2020/12/31 10:56:55;;;;;;;3.63;3.43;;;;;;;5.02;92.63;100512.31;6005202;29;20241;-78
2020/12/31 10:59:58;;;;;;;3.30;3.07;;;;;;;5.00;92.23;100519.78;6009088;29;20361;-79
2020/12/31 11:03:03;;;;;;;3.83;2.93;;;;;;;5.13;90.86;100523.69;6015940;29;20210;-78
2020/12/31 11:06:08;;;;;;;2.87;2.77;;;;;;;5.26;90.92;100523.84;6007857;29;20210;-79
2020/12/31 11:09:15;;;;;;;3.40;3.03;;;;;;;5.11;90.60;100525.75;6006377;29;20220;-78
2020/12/31 11:12:20;;;;;;;4.00;3.00;;;;;;;5.32;90.40;100528.47;6008533;29;20605;-78
2020/12/31 11:15:23;;;;;;;2.80;2.70;;;;;;;5.24;88.99;100526.72;6005435;29;20201;-78
2020/12/31 11:18:29;;;;;;;2.50;2.50;;;;;;;5.10;89.48;100513.22;6007192;29;20649;-76
2020/12/31 11:21:33;;;;;;;2.83;2.60;;;;;;;5.25;89.72;100531.09;6003317;29;20558;-78
2020/12/31 11:24:37;;;;;;;7.37;2.60;;;;;;;5.26;90.00;100529.25;6008204;29;20348;-77
2020/12/31 11:27:41;;;;;;;3.47;3.17;;;;;;;5.22;89.29;100523.38;5998665;29;20211;-77
2020/12/31 11:30:44;;;;;;;4.43;2.60;;;;;;;5.34;89.06;100518.31;6007827;29;20285;-77
2020/12/31 11:33:48;;;;;;;2.87;2.60;;;;;;;5.43;89.15;100522.56;6030522;29;20252;-79
2020/12/31 11:36:52;;;;;;;3.00;2.80;;;;;;;5.42;87.89;100499.22;6010160;29;20219;-80
2020/12/31 11:39:56;;;;;;;2.33;2.30;;;;;;;5.36;88.54;100518.97;6007961;29;20209;-82
2020/12/31 11:43:02;;;;;;;2.70;2.50;;;;;;;5.33;88.39;100505.81;6006690;29;20698;-78
2020/12/31 11:46:06;;;;;;;3.47;2.67;;;;;;;5.41;89.01;100511.09;6013308;29;20683;-78
2020/12/31 11:49:09;;;;;;;2.40;2.30;;;;;;;5.40;88.72;100520.25;6007477;29;20210;-77
2020/12/31 11:52:13;;;;;;;2.70;2.60;;;;;;;5.39;89.14;100524.81;5999369;29;20631;-79
2020/12/31 11:55:17;;;;;;;2.70;2.50;;;;;;;5.36;89.50;100524.38;6005755;29;20237;-76
2020/12/31 11:58:21;;;;;;;3.03;2.73;;;;;;;5.37;88.50;100499.81;6006420;29;20242;-76
2020/12/31 12:01:24;;;;;;;2.70;2.60;;;;;;;5.44;88.62;100525.09;6011523;29;20207;-76
2020/12/31 12:04:28;;;;;;;3.53;2.63;;;;;;;5.48;88.69;100533.66;6014217;29;20202;-77
2020/12/31 12:07:31;;;;;;;5.33;2.50;;;;;;;5.52;88.51;100533.06;6000429;29;20253;-77
2020/12/31 12:10:35;;;;;;;4.53;2.63;;;;;;;5.33;89.91;100540.97;6000928;29;20209;-77
2020/12/31 12:13:40;;;;;;;2.97;2.60;;;;;;;5.23;89.71;100521.50;6004751;29;20229;-78
2020/12/31 12:16:48;;;;;;;3.30;2.67;;;;;;;5.31;90.10;100538.47;6007696;29;20635;-77
2020/12/31 12:19:51;;;;;;;2.57;2.47;;;;;;;5.33;90.39;100546.38;6000656;29;20198;-80
2020/12/31 12:22:54;;;;;;;2.20;2.20;;;;;;;5.27;89.74;100549.84;6019282;29;20208;-80
2020/12/31 12:25:57;;;;;;;2.30;2.30;;;;;;;5.04;90.82;100531.03;6009485;29;20567;-79
2020/12/31 12:29:02;;;;;;;2.63;2.43;;;;;;;5.11;90.16;100541.97;6015366;29;20297;-81
2020/12/31 12:32:09;;;;;;;2.40;2.20;;;;;;;5.14;90.91;100536.16;6009934;29;20221;-78
2020/12/31 12:35:17;;;;;;;2.47;2.40;;;;;;;5.23;89.96;100535.03;6002868;29;20210;-79
2020/12/31 12:38:20;;;;;;;2.23;2.23;;;;;;;5.31;89.51;100538.47;6019542;29;20191;-85
2020/12/31 12:41:24;;;;;;;2.30;2.20;;;;;;;5.19;89.81;100528.34;6017141;29;20284;-78
2020/12/31 12:44:28;;;;;;;3.03;2.80;;;;;;;5.37;89.84;100553.06;6005312;29;20213;-77
2020/12/31 12:47:33;;;;;;;2.90;2.70;;;;;;;5.35;89.64;100538.91;6009331;29;20494;-79
2020/12/31 12:50:37;;;;;;;3.77;2.87;;;;;;;5.37;90.60;100544.97;6003578;29;20230;-78
2020/12/31 12:53:41;;;;;;;2.90;2.80;;;;;;;5.35;90.67;100544.31;6005320;29;20236;-77
2020/12/31 12:56:50;;;;;;;3.87;3.03;;;;;;;5.14;91.80;100531.59;6005488;29;20373;-79
2020/12/31 12:59:55;;;;;;;3.23;3.10;;;;;;;5.25;91.88;100538.38;6009111;29;20213;-82
2020/12/31 13:02:58;;;;;;;3.33;3.00;;;;;;;5.21;92.92;100531.69;6012689;29;20620;-78
2020/12/31 13:06:01;;;;;;;2.97;2.77;;;;;;;5.24;92.46;100547.53;6005545;29;20212;-78
2020/12/31 13:09:07;;;;;;;3.20;3.10;;;;;;;5.34;92.20;100550.78;6006380;29;20661;-78
2020/12/31 13:12:12;;;;;;;3.17;2.87;;;;;;;5.34;91.37;100558.91;6006642;29;20205;-77
2020/12/31 13:15:16;;;;;;;3.60;3.30;;;;;;;5.33;91.94;100551.78;6006984;29;20751;-79
2020/12/31 13:18:29;;;;;;;4.50;3.33;;;;;;;5.18;92.78;100548.28;6011527;29;20216;-77
2020/12/31 13:21:33;;;;;;;5.37;3.53;;;;;;;5.08;93.96;100554.81;6020950;29;20205;-79
2020/12/31 13:24:36;;;;;;;4.20;3.60;;;;;;;5.03;94.20;100546.41;6011101;29;20205;-77
2020/12/31 13:27:40;;;;;;;3.40;3.30;;;;;;;5.02;93.96;100550.19;6010380;29;20205;-80
2020/12/31 13:30:44;;;;;;;3.10;2.90;;;;;;;5.05;94.18;100552.50;6013698;29;20224;-78
2020/12/31 13:33:49;;;;;;;4.33;3.80;;;;;;;5.05;94.05;100544.41;6009387;29;20291;-79
2020/12/31 13:36:54;;;;;;;3.10;2.80;;;;;;;5.19;93.58;100556.19;6004219;29;20202;-79
2020/12/31 13:39:57;;;;;;;4.33;4.03;;;;;;;5.19;93.17;100556.19;5999168;29;20222;-78
2020/12/31 13:43:01;;;;;;;6.37;4.57;;;;;;;5.23;93.65;100562.94;6000788;29;20423;-78
2020/12/31 13:46:07;;;;;;;4.83;3.80;;;;;;;5.18;93.40;100542.88;6023760;29;20200;-77
2020/12/31 13:49:12;;;;;;;3.50;3.27;;;;;;;5.07;93.88;100561.25;6023450;29;20201;-79
2020/12/31 13:52:15;;;;;;;3.60;3.30;;;;;;;5.10;94.24;100567.31;6009289;29;20271;-77
2020/12/31 13:55:19;;;;;;;3.40;3.23;;;;;;;5.13;93.83;100572.34;6006743;29;20356;-81
2020/12/31 13:58:22;;;;;;;3.13;2.93;;;;;;;5.06;94.01;100562.28;6002719;29;20240;-79
2020/12/31 14:01:26;;;;;;;2.70;2.60;;;;;;;4.97;93.37;100568.81;6005319;29;20331;-84
2020/12/31 14:04:29;;;;;;;2.70;2.60;;;;;;;4.90;93.93;100546.28;6008060;29;20216;-78
2020/12/31 14:07:34;;;;;;;8.37;3.13;;;;;;;4.93;94.11;100570.22;6002210;29;20214;-78
2020/12/31 14:10:37;;;;;;;3.07;2.97;;;;;;;4.79;94.01;100571.06;6008619;29;20220;-78
2020/12/31 14:13:40;;;;;;;3.30;3.10;;;;;;;4.81;93.93;100569.00;5997697;29;20247;-77
2020/12/31 14:16:45;;;;;;;3.93;3.63;;;;;;;4.68;93.25;100541.78;6002146;29;20253;-78
2020/12/31 14:19:49;;;;;;;3.23;3.03;;;;;;;4.79;93.32;100581.03;6006210;29;20213;-79
2020/12/31 14:22:53;;;;;;;3.40;3.30;;;;;;;4.84;93.70;100589.41;6004981;29;20216;-79
2020/12/31 14:25:57;;;;;;;3.20;3.10;;;;;;;4.72;93.42;100591.75;6010515;29;20284;-79
2020/12/31 14:29:00;;;;;;;3.93;3.60;;;;;;;4.70;94.11;100604.59;6013353;29;20676;-77
2020/12/31 14:32:07;;;;;;;3.60;3.30;;;;;;;4.64;94.36;100593.69;5996288;29;20202;-76
2020/12/31 14:35:17;;;;;;;3.53;3.37;;;;;;;4.69;93.65;100586.72;5995380;29;20218;-78